sensor_id;sensor_type;location;lat;lon;timestamp;temperature;humidity
35559;DHT22;21661;50.794;-1.066;2023-06-24T00:01:15;18.60;99.90
35559;DHT22;21661;50.794;-1.066;2023-06-24T00:03:41;18.70;99.90
35559;DHT22;21661;50.794;-1.066;2023-06-24T00:06:15;18.60;99.90
35559;DHT22;21661;50.794;-1.066;2023-06-24T00:08:47;18.60;99.90
35559;DHT22;21661;50.794;-1.066;2023-06-24T00:11:13;18.50;99.90
35559;DHT22;21661;50.794;-1.066;2023-06-24T00:13:42;18.50;99.90
35559;DHT22;21661;50.794;-1.066;2023-06-24T00:16:09;18.50;99.90
35559;DHT22;21661;50.794;-1.066;2023-06-24T00:18:35;18.50;99.90
35559;DHT22;21661;50.794;-1.066;2023-06-24T00:21:02;18.50;99.90
35559;DHT22;21661;50.794;-1.066;2023-06-24T00:23:29;18.50;99.90
35559;DHT22;21661;50.794;-1.066;2023-06-24T00:25:56;18.50;99.90
35559;DHT22;21661;50.794;-1.066;2023-06-24T00:28:22;18.50;99.90
35559;DHT22;21661;50.794;-1.066;2023-06-24T00:30:48;18.50;99.90
35559;DHT22;21661;50.794;-1.066;2023-06-24T00:33:14;18.50;99.90
35559;DHT22;21661;50.794;-1.066;2023-06-24T00:35:41;18.40;99.90
35559;DHT22;21661;50.794;-1.066;2023-06-24T00:38:06;18.40;99.90
35559;DHT22;21661;50.794;-1.066;2023-06-24T00:40:32;18.40;99.90
35559;DHT22;21661;50.794;-1.066;2023-06-24T00:42:59;18.40;99.90
35559;DHT22;21661;50.794;-1.066;2023-06-24T00:45:27;18.40;99.90
35559;DHT22;21661;50.794;-1.066;2023-06-24T00:47:53;18.40;99.90
35559;DHT22;21661;50.794;-1.066;2023-06-24T00:50:21;18.50;99.90
35559;DHT22;21661;50.794;-1.066;2023-06-24T00:52:46;18.40;99.90
35559;DHT22;21661;50.794;-1.066;2023-06-24T00:55:15;18.40;99.90
35559;DHT22;21661;50.794;-1.066;2023-06-24T00:57:43;18.40;99.90
35559;DHT22;21661;50.794;-1.066;2023-06-24T01:00:10;18.40;99.90
35559;DHT22;21661;50.794;-1.066;2023-06-24T01:02:40;18.30;99.90
35559;DHT22;21661;50.794;-1.066;2023-06-24T01:05:08;18.40;99.90
35559;DHT22;21661;50.794;-1.066;2023-06-24T01:07:35;18.30;99.90
35559;DHT22;21661;50.794;-1.066;2023-06-24T01:10:05;18.30;99.90
35559;DHT22;21661;50.794;-1.066;2023-06-24T01:12:37;18.30;99.90
35559;DHT22;21661;50.794;-1.066;2023-06-24T01:15:04;18.30;99.90
35559;DHT22;21661;50.794;-1.066;2023-06-24T01:20:31;18.30;99.90
35559;DHT22;21661;50.794;-1.066;2023-06-24T01:36:37;18.40;99.90
35559;DHT22;21661;50.794;-1.066;2023-06-24T01:39:07;18.30;99.90
35559;DHT22;21661;50.794;-1.066;2023-06-24T01:41:43;18.30;99.90
35559;DHT22;21661;50.794;-1.066;2023-06-24T01:44:14;18.40;99.90
35559;DHT22;21661;50.794;-1.066;2023-06-24T01:46:41;18.40;99.90
35559;DHT22;21661;50.794;-1.066;2023-06-24T01:49:08;18.40;99.90
35559;DHT22;21661;50.794;-1.066;2023-06-24T01:51:38;18.40;99.90
35559;DHT22;21661;50.794;-1.066;2023-06-24T01:54:08;18.30;99.90
35559;DHT22;21661;50.794;-1.066;2023-06-24T01:56:36;18.30;99.90
35559;DHT22;21661;50.794;-1.066;2023-06-24T01:59:03;18.30;99.90
35559;DHT22;21661;50.794;-1.066;2023-06-24T02:01:31;18.30;99.90
35559;DHT22;21661;50.794;-1.066;2023-06-24T02:03:59;18.40;99.90
35559;DHT22;21661;50.794;-1.066;2023-06-24T02:06:26;18.40;99.90
35559;DHT22;21661;50.794;-1.066;2023-06-24T02:08:54;18.40;99.90
35559;DHT22;21661;50.794;-1.066;2023-06-24T02:11:22;18.40;99.90
35559;DHT22;21661;50.794;-1.066;2023-06-24T02:13:50;18.40;99.90
35559;DHT22;21661;50.794;-1.066;2023-06-24T02:16:17;18.40;99.90
35559;DHT22;21661;50.794;-1.066;2023-06-24T02:18:44;18.40;99.90
35559;DHT22;21661;50.794;-1.066;2023-06-24T02:21:10;18.40;99.90
35559;DHT22;21661;50.794;-1.066;2023-06-24T02:23:37;18.40;99.90
35559;DHT22;21661;50.794;-1.066;2023-06-24T02:26:04;18.40;99.90
35559;DHT22;21661;50.794;-1.066;2023-06-24T02:28:32;18.40;99.90
35559;DHT22;21661;50.794;-1.066;2023-06-24T02:30:58;18.40;99.90
35559;DHT22;21661;50.794;-1.066;2023-06-24T02:33:25;18.40;99.90
35559;DHT22;21661;50.794;-1.066;2023-06-24T02:35:52;18.40;99.90
35559;DHT22;21661;50.794;-1.066;2023-06-24T02:38:17;18.30;99.90
35559;DHT22;21661;50.794;-1.066;2023-06-24T02:40:45;18.30;99.90
35559;DHT22;21661;50.794;-1.066;2023-06-24T02:43:10;18.30;99.90
35559;DHT22;21661;50.794;-1.066;2023-06-24T02:45:36;18.30;99.90
35559;DHT22;21661;50.794;-1.066;2023-06-24T02:48:03;18.20;99.90
35559;DHT22;21661;50.794;-1.066;2023-06-24T02:50:30;18.30;99.90
35559;DHT22;21661;50.794;-1.066;2023-06-24T02:52:56;18.30;99.90
35559;DHT22;21661;50.794;-1.066;2023-06-24T02:55:23;18.30;99.90
35559;DHT22;21661;50.794;-1.066;2023-06-24T02:57:49;18.30;99.90
35559;DHT22;21661;50.794;-1.066;2023-06-24T03:00:16;18.30;99.90
35559;DHT22;21661;50.794;-1.066;2023-06-24T03:02:43;18.30;99.90
35559;DHT22;21661;50.794;-1.066;2023-06-24T03:05:10;18.30;99.90
35559;DHT22;21661;50.794;-1.066;2023-06-24T03:07:37;18.30;99.90
35559;DHT22;21661;50.794;-1.066;2023-06-24T03:10:03;18.30;99.90
35559;DHT22;21661;50.794;-1.066;2023-06-24T03:12:31;18.30;99.90
35559;DHT22;21661;50.794;-1.066;2023-06-24T03:14:57;18.20;99.90
35559;DHT22;21661;50.794;-1.066;2023-06-24T03:17:22;18.20;99.90
35559;DHT22;21661;50.794;-1.066;2023-06-24T03:19:48;18.20;99.90
35559;DHT22;21661;50.794;-1.066;2023-06-24T03:22:13;18.20;99.90
35559;DHT22;21661;50.794;-1.066;2023-06-24T03:24:39;18.20;99.90
35559;DHT22;21661;50.794;-1.066;2023-06-24T03:27:05;18.20;99.90
35559;DHT22;21661;50.794;-1.066;2023-06-24T03:29:30;18.20;99.90
35559;DHT22;21661;50.794;-1.066;2023-06-24T03:31:56;18.20;99.90
35559;DHT22;21661;50.794;-1.066;2023-06-24T03:34:21;18.20;99.90
35559;DHT22;21661;50.794;-1.066;2023-06-24T03:36:47;18.20;99.90
35559;DHT22;21661;50.794;-1.066;2023-06-24T03:39:13;18.20;99.90
35559;DHT22;21661;50.794;-1.066;2023-06-24T03:41:38;18.10;99.90
35559;DHT22;21661;50.794;-1.066;2023-06-24T03:44:04;18.10;99.90
35559;DHT22;21661;50.794;-1.066;2023-06-24T03:46:30;18.00;99.90
35559;DHT22;21661;50.794;-1.066;2023-06-24T03:48:58;18.10;99.90
35559;DHT22;21661;50.794;-1.066;2023-06-24T03:51:25;18.10;99.90
35559;DHT22;21661;50.794;-1.066;2023-06-24T03:53:51;18.10;99.90
35559;DHT22;21661;50.794;-1.066;2023-06-24T03:56:17;18.10;99.90
35559;DHT22;21661;50.794;-1.066;2023-06-24T03:58:42;18.20;99.90
35559;DHT22;21661;50.794;-1.066;2023-06-24T04:01:08;18.10;99.90
35559;DHT22;21661;50.794;-1.066;2023-06-24T04:03:35;18.10;99.90
35559;DHT22;21661;50.794;-1.066;2023-06-24T04:06:00;18.10;99.90
35559;DHT22;21661;50.794;-1.066;2023-06-24T04:08:27;18.10;99.90
35559;DHT22;21661;50.794;-1.066;2023-06-24T04:10:59;18.10;99.90
35559;DHT22;21661;50.794;-1.066;2023-06-24T04:13:32;18.10;99.90
35559;DHT22;21661;50.794;-1.066;2023-06-24T04:15:57;18.10;99.90
35559;DHT22;21661;50.794;-1.066;2023-06-24T04:18:23;18.10;99.90
35559;DHT22;21661;50.794;-1.066;2023-06-24T04:20:49;18.10;99.90
35559;DHT22;21661;50.794;-1.066;2023-06-24T04:23:14;18.20;99.90
35559;DHT22;21661;50.794;-1.066;2023-06-24T04:25:41;18.20;99.90
35559;DHT22;21661;50.794;-1.066;2023-06-24T04:28:06;18.20;99.90
35559;DHT22;21661;50.794;-1.066;2023-06-24T04:30:35;18.20;99.90
35559;DHT22;21661;50.794;-1.066;2023-06-24T04:33:01;18.20;99.90
35559;DHT22;21661;50.794;-1.066;2023-06-24T04:35:26;18.20;99.90
35559;DHT22;21661;50.794;-1.066;2023-06-24T04:37:52;18.20;99.90
35559;DHT22;21661;50.794;-1.066;2023-06-24T04:40:18;18.20;99.90
35559;DHT22;21661;50.794;-1.066;2023-06-24T04:42:45;18.20;99.90
35559;DHT22;21661;50.794;-1.066;2023-06-24T04:45:11;18.10;99.90
35559;DHT22;21661;50.794;-1.066;2023-06-24T04:47:36;18.20;99.90
35559;DHT22;21661;50.794;-1.066;2023-06-24T04:50:03;18.20;99.90
35559;DHT22;21661;50.794;-1.066;2023-06-24T04:52:28;18.20;99.90
35559;DHT22;21661;50.794;-1.066;2023-06-24T04:54:54;18.20;99.90
35559;DHT22;21661;50.794;-1.066;2023-06-24T04:57:26;18.20;99.90
35559;DHT22;21661;50.794;-1.066;2023-06-24T04:59:52;18.20;99.90
35559;DHT22;21661;50.794;-1.066;2023-06-24T05:02:17;18.30;99.90
35559;DHT22;21661;50.794;-1.066;2023-06-24T05:04:43;18.30;99.90
35559;DHT22;21661;50.794;-1.066;2023-06-24T05:07:08;18.30;99.90
35559;DHT22;21661;50.794;-1.066;2023-06-24T05:09:34;18.30;99.90
35559;DHT22;21661;50.794;-1.066;2023-06-24T05:12:06;18.30;99.90
35559;DHT22;21661;50.794;-1.066;2023-06-24T05:14:33;18.30;99.90
35559;DHT22;21661;50.794;-1.066;2023-06-24T05:16:59;18.30;99.90
35559;DHT22;21661;50.794;-1.066;2023-06-24T05:19:24;18.30;99.90
35559;DHT22;21661;50.794;-1.066;2023-06-24T05:21:50;18.30;99.90
35559;DHT22;21661;50.794;-1.066;2023-06-24T05:24:15;18.30;99.90
35559;DHT22;21661;50.794;-1.066;2023-06-24T05:26:41;18.40;99.90
35559;DHT22;21661;50.794;-1.066;2023-06-24T05:29:06;18.30;99.90
35559;DHT22;21661;50.794;-1.066;2023-06-24T05:31:32;18.30;99.90
35559;DHT22;21661;50.794;-1.066;2023-06-24T05:33:58;18.30;99.90
35559;DHT22;21661;50.794;-1.066;2023-06-24T05:36:23;18.40;99.90
35559;DHT22;21661;50.794;-1.066;2023-06-24T05:38:49;18.40;99.90
35559;DHT22;21661;50.794;-1.066;2023-06-24T05:41:15;18.40;99.90
35559;DHT22;21661;50.794;-1.066;2023-06-24T05:43:42;18.40;99.90
35559;DHT22;21661;50.794;-1.066;2023-06-24T05:46:08;18.40;99.90
35559;DHT22;21661;50.794;-1.066;2023-06-24T05:48:34;18.40;99.90
35559;DHT22;21661;50.794;-1.066;2023-06-24T05:50:59;18.50;99.90
35559;DHT22;21661;50.794;-1.066;2023-06-24T05:53:25;18.40;99.90
35559;DHT22;21661;50.794;-1.066;2023-06-24T05:55:51;18.50;99.90
35559;DHT22;21661;50.794;-1.066;2023-06-24T05:58:16;18.60;99.90
35559;DHT22;21661;50.794;-1.066;2023-06-24T06:00:42;18.70;99.90
35559;DHT22;21661;50.794;-1.066;2023-06-24T06:03:07;18.80;99.90
35559;DHT22;21661;50.794;-1.066;2023-06-24T06:05:34;18.90;99.90
35559;DHT22;21661;50.794;-1.066;2023-06-24T06:08:00;18.90;99.90
35559;DHT22;21661;50.794;-1.066;2023-06-24T06:10:25;18.90;99.90
35559;DHT22;21661;50.794;-1.066;2023-06-24T06:12:51;19.00;99.90
35559;DHT22;21661;50.794;-1.066;2023-06-24T06:15:19;18.90;99.90
35559;DHT22;21661;50.794;-1.066;2023-06-24T06:17:45;18.90;99.90
35559;DHT22;21661;50.794;-1.066;2023-06-24T06:20:11;18.90;99.90
35559;DHT22;21661;50.794;-1.066;2023-06-24T06:22:37;18.80;99.90
35559;DHT22;21661;50.794;-1.066;2023-06-24T06:25:07;18.80;99.90
35559;DHT22;21661;50.794;-1.066;2023-06-24T06:27:33;18.90;99.90
35559;DHT22;21661;50.794;-1.066;2023-06-24T06:29:58;18.90;99.90
35559;DHT22;21661;50.794;-1.066;2023-06-24T06:32:24;18.90;99.90
35559;DHT22;21661;50.794;-1.066;2023-06-24T06:34:49;18.90;99.90
35559;DHT22;21661;50.794;-1.066;2023-06-24T06:37:15;18.90;99.90
35559;DHT22;21661;50.794;-1.066;2023-06-24T06:39:41;19.00;99.90
35559;DHT22;21661;50.794;-1.066;2023-06-24T06:42:06;19.00;99.90
35559;DHT22;21661;50.794;-1.066;2023-06-24T06:44:32;19.00;99.90
35559;DHT22;21661;50.794;-1.066;2023-06-24T06:46:57;19.10;99.90
35559;DHT22;21661;50.794;-1.066;2023-06-24T06:49:23;19.20;99.90
35559;DHT22;21661;50.794;-1.066;2023-06-24T06:51:49;19.20;99.90
35559;DHT22;21661;50.794;-1.066;2023-06-24T06:54:14;19.20;99.90
35559;DHT22;21661;50.794;-1.066;2023-06-24T06:56:40;19.10;99.90
35559;DHT22;21661;50.794;-1.066;2023-06-24T06:59:06;19.10;99.90
35559;DHT22;21661;50.794;-1.066;2023-06-24T07:01:31;19.20;99.90
35559;DHT22;21661;50.794;-1.066;2023-06-24T07:03:57;19.20;99.90
35559;DHT22;21661;50.794;-1.066;2023-06-24T07:06:22;19.30;99.90
35559;DHT22;21661;50.794;-1.066;2023-06-24T07:08:48;19.30;99.90
35559;DHT22;21661;50.794;-1.066;2023-06-24T07:11:14;19.30;99.90
35559;DHT22;21661;50.794;-1.066;2023-06-24T07:13:39;19.30;99.90
35559;DHT22;21661;50.794;-1.066;2023-06-24T07:16:05;19.30;99.90
35559;DHT22;21661;50.794;-1.066;2023-06-24T07:18:31;19.30;99.90
35559;DHT22;21661;50.794;-1.066;2023-06-24T07:20:59;19.30;99.90
35559;DHT22;21661;50.794;-1.066;2023-06-24T07:23:25;19.40;99.90
35559;DHT22;21661;50.794;-1.066;2023-06-24T07:25:50;19.40;99.90
35559;DHT22;21661;50.794;-1.066;2023-06-24T07:28:16;19.40;99.90
35559;DHT22;21661;50.794;-1.066;2023-06-24T07:30:42;19.40;99.90
35559;DHT22;21661;50.794;-1.066;2023-06-24T07:33:08;19.40;99.90
35559;DHT22;21661;50.794;-1.066;2023-06-24T07:35:33;19.40;99.90
35559;DHT22;21661;50.794;-1.066;2023-06-24T07:38:00;19.40;99.90
35559;DHT22;21661;50.794;-1.066;2023-06-24T07:40:25;19.50;99.90
35559;DHT22;21661;50.794;-1.066;2023-06-24T07:42:51;19.50;99.90
35559;DHT22;21661;50.794;-1.066;2023-06-24T07:45:16;19.50;99.90
35559;DHT22;21661;50.794;-1.066;2023-06-24T07:47:42;19.60;99.90
35559;DHT22;21661;50.794;-1.066;2023-06-24T07:50:08;19.60;99.90
35559;DHT22;21661;50.794;-1.066;2023-06-24T07:52:36;19.70;99.90
35559;DHT22;21661;50.794;-1.066;2023-06-24T07:55:02;19.70;99.90
35559;DHT22;21661;50.794;-1.066;2023-06-24T07:57:29;19.80;99.90
35559;DHT22;21661;50.794;-1.066;2023-06-24T07:59:54;19.80;99.90
35559;DHT22;21661;50.794;-1.066;2023-06-24T08:02:20;19.80;99.90
35559;DHT22;21661;50.794;-1.066;2023-06-24T08:04:47;19.80;99.90
35559;DHT22;21661;50.794;-1.066;2023-06-24T08:07:12;19.80;99.90
35559;DHT22;21661;50.794;-1.066;2023-06-24T08:09:38;19.80;99.90
35559;DHT22;21661;50.794;-1.066;2023-06-24T08:12:04;19.90;99.90
35559;DHT22;21661;50.794;-1.066;2023-06-24T08:14:29;19.90;99.90
35559;DHT22;21661;50.794;-1.066;2023-06-24T08:16:55;19.90;99.90
35559;DHT22;21661;50.794;-1.066;2023-06-24T08:19:20;20.00;99.90
35559;DHT22;21661;50.794;-1.066;2023-06-24T08:21:46;20.00;99.90
35559;DHT22;21661;50.794;-1.066;2023-06-24T08:24:12;20.00;99.90
35559;DHT22;21661;50.794;-1.066;2023-06-24T08:26:37;20.10;99.90
35559;DHT22;21661;50.794;-1.066;2023-06-24T08:29:03;20.20;99.90
35559;DHT22;21661;50.794;-1.066;2023-06-24T08:31:29;20.20;99.90
35559;DHT22;21661;50.794;-1.066;2023-06-24T08:33:55;20.30;99.90
35559;DHT22;21661;50.794;-1.066;2023-06-24T08:36:27;20.20;99.90
35559;DHT22;21661;50.794;-1.066;2023-06-24T08:38:52;20.30;99.90
35559;DHT22;21661;50.794;-1.066;2023-06-24T08:41:18;20.20;99.90
35559;DHT22;21661;50.794;-1.066;2023-06-24T08:43:44;20.30;99.90
35559;DHT22;21661;50.794;-1.066;2023-06-24T08:46:09;20.30;99.90
35559;DHT22;21661;50.794;-1.066;2023-06-24T08:48:36;20.40;99.90
35559;DHT22;21661;50.794;-1.066;2023-06-24T08:51:08;20.40;99.90
35559;DHT22;21661;50.794;-1.066;2023-06-24T08:53:35;20.50;99.90
35559;DHT22;21661;50.794;-1.066;2023-06-24T08:56:02;20.50;99.90
35559;DHT22;21661;50.794;-1.066;2023-06-24T08:58:28;20.60;99.90
35559;DHT22;21661;50.794;-1.066;2023-06-24T09:00:54;20.70;99.90
35559;DHT22;21661;50.794;-1.066;2023-06-24T09:03:20;20.80;99.90
35559;DHT22;21661;50.794;-1.066;2023-06-24T09:05:45;20.90;99.90
35559;DHT22;21661;50.794;-1.066;2023-06-24T09:08:11;20.90;99.90
35559;DHT22;21661;50.794;-1.066;2023-06-24T09:10:37;20.90;99.90
35559;DHT22;21661;50.794;-1.066;2023-06-24T09:13:05;20.90;99.90
35559;DHT22;21661;50.794;-1.066;2023-06-24T09:15:35;20.90;99.90
35559;DHT22;21661;50.794;-1.066;2023-06-24T09:18:01;20.90;99.90
35559;DHT22;21661;50.794;-1.066;2023-06-24T09:20:28;21.00;99.90
35559;DHT22;21661;50.794;-1.066;2023-06-24T09:23:03;21.20;99.90
35559;DHT22;21661;50.794;-1.066;2023-06-24T09:25:30;21.10;99.90
35559;DHT22;21661;50.794;-1.066;2023-06-24T09:28:02;21.00;99.90
35559;DHT22;21661;50.794;-1.066;2023-06-24T09:30:29;21.00;99.90
35559;DHT22;21661;50.794;-1.066;2023-06-24T09:32:55;21.10;99.90
35559;DHT22;21661;50.794;-1.066;2023-06-24T09:35:23;21.10;99.90
35559;DHT22;21661;50.794;-1.066;2023-06-24T09:37:55;21.10;99.90
35559;DHT22;21661;50.794;-1.066;2023-06-24T09:40:22;21.20;99.90
35559;DHT22;21661;50.794;-1.066;2023-06-24T09:42:52;21.30;99.90
35559;DHT22;21661;50.794;-1.066;2023-06-24T09:45:26;21.40;99.90
35559;DHT22;21661;50.794;-1.066;2023-06-24T09:47:52;21.40;99.90
35559;DHT22;21661;50.794;-1.066;2023-06-24T09:50:18;21.40;99.90
35559;DHT22;21661;50.794;-1.066;2023-06-24T09:52:44;21.50;99.90
35559;DHT22;21661;50.794;-1.066;2023-06-24T09:55:13;21.50;99.90
35559;DHT22;21661;50.794;-1.066;2023-06-24T09:57:41;21.40;99.90
35559;DHT22;21661;50.794;-1.066;2023-06-24T10:00:09;21.50;99.90
35559;DHT22;21661;50.794;-1.066;2023-06-24T10:02:35;21.60;99.90
35559;DHT22;21661;50.794;-1.066;2023-06-24T10:05:01;21.70;99.90
35559;DHT22;21661;50.794;-1.066;2023-06-24T10:07:28;21.70;99.90
35559;DHT22;21661;50.794;-1.066;2023-06-24T10:09:54;21.80;99.90
35559;DHT22;21661;50.794;-1.066;2023-06-24T10:12:20;21.80;99.90
35559;DHT22;21661;50.794;-1.066;2023-06-24T10:14:46;21.90;99.90
35559;DHT22;21661;50.794;-1.066;2023-06-24T10:17:12;21.90;99.90
35559;DHT22;21661;50.794;-1.066;2023-06-24T10:19:39;22.00;99.90
35559;DHT22;21661;50.794;-1.066;2023-06-24T10:22:09;22.10;99.90
35559;DHT22;21661;50.794;-1.066;2023-06-24T10:24:37;22.30;99.90
35559;DHT22;21661;50.794;-1.066;2023-06-24T10:27:15;22.30;99.90
35559;DHT22;21661;50.794;-1.066;2023-06-24T10:29:46;22.30;99.90
35559;DHT22;21661;50.794;-1.066;2023-06-24T10:32:12;22.30;99.90
35559;DHT22;21661;50.794;-1.066;2023-06-24T10:37:04;22.00;99.90
35559;DHT22;21661;50.794;-1.066;2023-06-24T10:39:54;22.00;99.90
35559;DHT22;21661;50.794;-1.066;2023-06-24T10:42:43;22.00;99.90
35559;DHT22;21661;50.794;-1.066;2023-06-24T10:47:56;22.10;99.90
35559;DHT22;21661;50.794;-1.066;2023-06-24T10:50:25;22.20;99.90
35559;DHT22;21661;50.794;-1.066;2023-06-24T10:52:52;22.40;99.90
35559;DHT22;21661;50.794;-1.066;2023-06-24T10:55:23;22.50;99.90
35559;DHT22;21661;50.794;-1.066;2023-06-24T10:57:50;22.50;99.90
35559;DHT22;21661;50.794;-1.066;2023-06-24T11:00:16;22.50;99.90
35559;DHT22;21661;50.794;-1.066;2023-06-24T11:02:42;22.70;99.90
35559;DHT22;21661;50.794;-1.066;2023-06-24T11:05:08;22.70;99.90
35559;DHT22;21661;50.794;-1.066;2023-06-24T11:07:37;22.80;99.90
35559;DHT22;21661;50.794;-1.066;2023-06-24T11:10:16;22.90;99.90
35559;DHT22;21661;50.794;-1.066;2023-06-24T11:12:42;23.00;99.90
35559;DHT22;21661;50.794;-1.066;2023-06-24T11:15:10;23.10;99.90
35559;DHT22;21661;50.794;-1.066;2023-06-24T11:17:37;23.10;99.90
35559;DHT22;21661;50.794;-1.066;2023-06-24T11:22:33;23.00;99.90
35559;DHT22;21661;50.794;-1.066;2023-06-24T11:24:58;23.00;99.90
35559;DHT22;21661;50.794;-1.066;2023-06-24T11:27:26;23.00;99.90
35559;DHT22;21661;50.794;-1.066;2023-06-24T11:29:53;23.10;99.90
35559;DHT22;21661;50.794;-1.066;2023-06-24T11:32:19;23.10;99.90
35559;DHT22;21661;50.794;-1.066;2023-06-24T11:34:44;23.30;99.90
35559;DHT22;21661;50.794;-1.066;2023-06-24T11:37:15;23.30;99.90
35559;DHT22;21661;50.794;-1.066;2023-06-24T11:39:41;23.30;99.90
35559;DHT22;21661;50.794;-1.066;2023-06-24T11:42:08;23.30;99.90
35559;DHT22;21661;50.794;-1.066;2023-06-24T11:44:34;23.30;99.90
35559;DHT22;21661;50.794;-1.066;2023-06-24T11:47:05;23.40;99.90
35559;DHT22;21661;50.794;-1.066;2023-06-24T11:49:30;23.40;99.90
35559;DHT22;21661;50.794;-1.066;2023-06-24T11:51:56;23.50;99.90
35559;DHT22;21661;50.794;-1.066;2023-06-24T11:54:21;23.50;99.90
35559;DHT22;21661;50.794;-1.066;2023-06-24T11:56:51;23.50;99.90
35559;DHT22;21661;50.794;-1.066;2023-06-24T11:59:21;23.50;99.90
35559;DHT22;21661;50.794;-1.066;2023-06-24T12:01:58;23.60;99.90
35559;DHT22;21661;50.794;-1.066;2023-06-24T12:04:32;23.70;99.90
35559;DHT22;21661;50.794;-1.066;2023-06-24T12:06:58;23.70;99.90
35559;DHT22;21661;50.794;-1.066;2023-06-24T12:09:24;23.70;99.90
35559;DHT22;21661;50.794;-1.066;2023-06-24T12:11:50;23.80;99.90
35559;DHT22;21661;50.794;-1.066;2023-06-24T12:14:16;23.80;99.90
35559;DHT22;21661;50.794;-1.066;2023-06-24T12:16:42;23.80;99.90
35559;DHT22;21661;50.794;-1.066;2023-06-24T12:19:08;23.70;99.90
35559;DHT22;21661;50.794;-1.066;2023-06-24T12:21:34;23.50;99.90
35559;DHT22;21661;50.794;-1.066;2023-06-24T12:24:00;23.50;99.90
35559;DHT22;21661;50.794;-1.066;2023-06-24T12:26:26;23.50;99.90
35559;DHT22;21661;50.794;-1.066;2023-06-24T12:28:55;23.60;99.90
35559;DHT22;21661;50.794;-1.066;2023-06-24T12:31:26;23.60;99.90
35559;DHT22;21661;50.794;-1.066;2023-06-24T12:33:52;23.60;99.90
35559;DHT22;21661;50.794;-1.066;2023-06-24T12:36:18;23.60;99.90
35559;DHT22;21661;50.794;-1.066;2023-06-24T12:38:44;23.80;99.90
35559;DHT22;21661;50.794;-1.066;2023-06-24T12:41:09;23.70;99.90
35559;DHT22;21661;50.794;-1.066;2023-06-24T12:43:35;23.70;99.90
35559;DHT22;21661;50.794;-1.066;2023-06-24T12:46:01;23.70;99.90
35559;DHT22;21661;50.794;-1.066;2023-06-24T12:48:26;23.60;99.90
35559;DHT22;21661;50.794;-1.066;2023-06-24T12:50:52;23.50;99.90
35559;DHT22;21661;50.794;-1.066;2023-06-24T12:53:21;23.60;99.90
35559;DHT22;21661;50.794;-1.066;2023-06-24T12:55:47;23.60;99.90
35559;DHT22;21661;50.794;-1.066;2023-06-24T12:58:14;23.60;99.90
35559;DHT22;21661;50.794;-1.066;2023-06-24T13:00:40;23.50;99.90
35559;DHT22;21661;50.794;-1.066;2023-06-24T13:03:05;23.50;99.90
35559;DHT22;21661;50.794;-1.066;2023-06-24T13:05:31;23.30;99.90
35559;DHT22;21661;50.794;-1.066;2023-06-24T13:07:57;23.30;99.90
35559;DHT22;21661;50.794;-1.066;2023-06-24T13:10:22;23.30;99.90
35559;DHT22;21661;50.794;-1.066;2023-06-24T13:12:48;23.40;99.90
35559;DHT22;21661;50.794;-1.066;2023-06-24T13:15:14;23.40;99.90
35559;DHT22;21661;50.794;-1.066;2023-06-24T13:17:40;23.30;99.90
35559;DHT22;21661;50.794;-1.066;2023-06-24T13:20:06;23.20;99.90
35559;DHT22;21661;50.794;-1.066;2023-06-24T13:22:32;23.10;99.90
35559;DHT22;21661;50.794;-1.066;2023-06-24T13:24:57;23.00;99.90
35559;DHT22;21661;50.794;-1.066;2023-06-24T13:27:23;23.00;99.90
35559;DHT22;21661;50.794;-1.066;2023-06-24T13:29:48;23.00;99.90
35559;DHT22;21661;50.794;-1.066;2023-06-24T13:32:14;23.10;99.90
35559;DHT22;21661;50.794;-1.066;2023-06-24T13:34:40;23.30;99.90
35559;DHT22;21661;50.794;-1.066;2023-06-24T13:37:05;23.50;99.90
35559;DHT22;21661;50.794;-1.066;2023-06-24T13:39:31;23.60;99.90
35559;DHT22;21661;50.794;-1.066;2023-06-24T13:41:58;23.80;99.90
35559;DHT22;21661;50.794;-1.066;2023-06-24T13:44:23;23.90;99.90
35559;DHT22;21661;50.794;-1.066;2023-06-24T13:46:49;24.00;99.90
35559;DHT22;21661;50.794;-1.066;2023-06-24T13:49:19;24.10;99.90
35559;DHT22;21661;50.794;-1.066;2023-06-24T13:51:44;24.20;99.90
35559;DHT22;21661;50.794;-1.066;2023-06-24T13:54:10;24.00;99.90
35559;DHT22;21661;50.794;-1.066;2023-06-24T13:56:35;24.00;99.90
35559;DHT22;21661;50.794;-1.066;2023-06-24T13:59:01;24.00;99.90
35559;DHT22;21661;50.794;-1.066;2023-06-24T14:01:28;24.00;99.90
35559;DHT22;21661;50.794;-1.066;2023-06-24T14:03:57;24.00;99.90
35559;DHT22;21661;50.794;-1.066;2023-06-24T14:06:23;24.20;99.90
35559;DHT22;21661;50.794;-1.066;2023-06-24T14:08:50;24.30;99.90
35559;DHT22;21661;50.794;-1.066;2023-06-24T14:11:16;24.30;99.90
35559;DHT22;21661;50.794;-1.066;2023-06-24T14:13:43;24.30;99.90
35559;DHT22;21661;50.794;-1.066;2023-06-24T14:16:09;24.20;99.90
35559;DHT22;21661;50.794;-1.066;2023-06-24T14:18:35;24.30;99.90
35559;DHT22;21661;50.794;-1.066;2023-06-24T14:21:03;24.30;99.90
35559;DHT22;21661;50.794;-1.066;2023-06-24T14:23:29;24.40;99.90
35559;DHT22;21661;50.794;-1.066;2023-06-24T14:25:55;24.40;99.90
35559;DHT22;21661;50.794;-1.066;2023-06-24T14:28:21;24.40;99.90
35559;DHT22;21661;50.794;-1.066;2023-06-24T14:30:47;24.20;99.90
35559;DHT22;21661;50.794;-1.066;2023-06-24T14:33:13;24.10;99.90
35559;DHT22;21661;50.794;-1.066;2023-06-24T14:35:40;24.00;99.90
35559;DHT22;21661;50.794;-1.066;2023-06-24T14:38:06;23.90;99.90
35559;DHT22;21661;50.794;-1.066;2023-06-24T14:40:32;24.00;99.90
35559;DHT22;21661;50.794;-1.066;2023-06-24T14:42:59;23.90;99.90
35559;DHT22;21661;50.794;-1.066;2023-06-24T14:45:24;23.80;99.90
35559;DHT22;21661;50.794;-1.066;2023-06-24T14:47:50;23.70;99.90
35559;DHT22;21661;50.794;-1.066;2023-06-24T14:50:16;23.60;99.90
35559;DHT22;21661;50.794;-1.066;2023-06-24T14:52:41;23.80;99.90
35559;DHT22;21661;50.794;-1.066;2023-06-24T14:55:07;23.80;99.90
35559;DHT22;21661;50.794;-1.066;2023-06-24T14:57:33;23.80;99.90
35559;DHT22;21661;50.794;-1.066;2023-06-24T14:59:59;23.90;99.90
35559;DHT22;21661;50.794;-1.066;2023-06-24T15:02:24;24.00;99.90
35559;DHT22;21661;50.794;-1.066;2023-06-24T15:04:51;24.00;99.90
35559;DHT22;21661;50.794;-1.066;2023-06-24T15:07:17;24.10;99.90
35559;DHT22;21661;50.794;-1.066;2023-06-24T15:09:42;23.80;99.90
35559;DHT22;21661;50.794;-1.066;2023-06-24T15:12:09;23.60;99.90
35559;DHT22;21661;50.794;-1.066;2023-06-24T15:14:34;23.50;99.90
35559;DHT22;21661;50.794;-1.066;2023-06-24T15:17:00;23.20;99.90
35559;DHT22;21661;50.794;-1.066;2023-06-24T15:19:25;22.80;99.90
35559;DHT22;21661;50.794;-1.066;2023-06-24T15:21:51;22.80;99.90
35559;DHT22;21661;50.794;-1.066;2023-06-24T15:24:16;22.80;99.90
35559;DHT22;21661;50.794;-1.066;2023-06-24T15:26:42;22.90;99.90
35559;DHT22;21661;50.794;-1.066;2023-06-24T15:29:07;23.00;99.90
35559;DHT22;21661;50.794;-1.066;2023-06-24T15:31:33;23.00;99.90
35559;DHT22;21661;50.794;-1.066;2023-06-24T15:33:59;23.00;99.90
35559;DHT22;21661;50.794;-1.066;2023-06-24T15:36:24;22.90;99.90